sensor_id;sensor_type;location;lat;lon;timestamp;temperature;humidity
18906;DHT22;9585;51.018;4.282;2022-08-21T00:01:24;14.20;99.90
18906;DHT22;9585;51.018;4.282;2022-08-21T00:03:53;14.20;99.90
18906;DHT22;9585;51.018;4.282;2022-08-21T00:06:21;14.20;99.90
18906;DHT22;9585;51.018;4.282;2022-08-21T00:08:49;14.20;99.90
18906;DHT22;9585;51.018;4.282;2022-08-21T00:11:17;14.20;99.90
18906;DHT22;9585;51.018;4.282;2022-08-21T00:13:44;14.10;99.90
18906;DHT22;9585;51.018;4.282;2022-08-21T00:16:11;14.10;99.90
18906;DHT22;9585;51.018;4.282;2022-08-21T00:18:38;14.10;99.90
18906;DHT22;9585;51.018;4.282;2022-08-21T00:21:07;14.10;99.90
18906;DHT22;9585;51.018;4.282;2022-08-21T00:23:35;14.00;99.90
18906;DHT22;9585;51.018;4.282;2022-08-21T00:26:03;14.00;99.90
18906;DHT22;9585;51.018;4.282;2022-08-21T00:28:30;14.00;99.90
18906;DHT22;9585;51.018;4.282;2022-08-21T00:30:58;13.90;99.90
18906;DHT22;9585;51.018;4.282;2022-08-21T00:33:26;13.90;99.90
18906;DHT22;9585;51.018;4.282;2022-08-21T00:35:53;13.80;99.90
18906;DHT22;9585;51.018;4.282;2022-08-21T00:38:22;13.80;99.90
18906;DHT22;9585;51.018;4.282;2022-08-21T00:40:53;13.80;99.90
18906;DHT22;9585;51.018;4.282;2022-08-21T00:43:25;13.70;99.90
18906;DHT22;9585;51.018;4.282;2022-08-21T00:45:53;13.70;99.90
18906;DHT22;9585;51.018;4.282;2022-08-21T00:48:22;13.60;99.90
18906;DHT22;9585;51.018;4.282;2022-08-21T00:50:54;13.60;99.90
18906;DHT22;9585;51.018;4.282;2022-08-21T00:53:24;13.60;99.90
18906;DHT22;9585;51.018;4.282;2022-08-21T00:55:52;13.50;99.90
18906;DHT22;9585;51.018;4.282;2022-08-21T00:58:20;13.50;99.90
18906;DHT22;9585;51.018;4.282;2022-08-21T01:00:48;13.40;99.90
18906;DHT22;9585;51.018;4.282;2022-08-21T01:03:18;13.40;99.90
18906;DHT22;9585;51.018;4.282;2022-08-21T01:05:46;13.30;99.90
18906;DHT22;9585;51.018;4.282;2022-08-21T01:08:14;13.30;99.90
18906;DHT22;9585;51.018;4.282;2022-08-21T01:10:44;13.30;99.90
18906;DHT22;9585;51.018;4.282;2022-08-21T01:13:15;13.30;99.90
18906;DHT22;9585;51.018;4.282;2022-08-21T01:15:46;13.20;99.90
18906;DHT22;9585;51.018;4.282;2022-08-21T01:18:15;13.20;99.90
18906;DHT22;9585;51.018;4.282;2022-08-21T01:20:51;13.20;99.90
18906;DHT22;9585;51.018;4.282;2022-08-21T01:23:18;13.10;99.90
18906;DHT22;9585;51.018;4.282;2022-08-21T01:25:46;13.10;99.90
18906;DHT22;9585;51.018;4.282;2022-08-21T01:28:14;13.10;99.90
18906;DHT22;9585;51.018;4.282;2022-08-21T01:30:43;13.00;99.90
18906;DHT22;9585;51.018;4.282;2022-08-21T01:33:10;12.90;99.90
18906;DHT22;9585;51.018;4.282;2022-08-21T01:35:37;12.90;99.90
18906;DHT22;9585;51.018;4.282;2022-08-21T01:38:06;12.90;99.90
18906;DHT22;9585;51.018;4.282;2022-08-21T01:40:33;12.90;99.90
18906;DHT22;9585;51.018;4.282;2022-08-21T01:43:00;13.00;99.90
18906;DHT22;9585;51.018;4.282;2022-08-21T01:45:28;13.00;99.90
18906;DHT22;9585;51.018;4.282;2022-08-21T01:47:55;13.00;99.90
18906;DHT22;9585;51.018;4.282;2022-08-21T01:50:22;13.00;99.90
18906;DHT22;9585;51.018;4.282;2022-08-21T01:52:50;13.00;99.90
18906;DHT22;9585;51.018;4.282;2022-08-21T01:55:19;13.00;99.90
18906;DHT22;9585;51.018;4.282;2022-08-21T01:57:46;13.10;99.90
18906;DHT22;9585;51.018;4.282;2022-08-21T02:00:17;13.00;99.90
18906;DHT22;9585;51.018;4.282;2022-08-21T02:02:44;13.00;99.90
18906;DHT22;9585;51.018;4.282;2022-08-21T02:05:12;13.00;99.90
18906;DHT22;9585;51.018;4.282;2022-08-21T02:07:42;13.00;99.90
18906;DHT22;9585;51.018;4.282;2022-08-21T02:10:11;13.00;99.90
18906;DHT22;9585;51.018;4.282;2022-08-21T02:12:40;13.00;99.90
18906;DHT22;9585;51.018;4.282;2022-08-21T02:15:08;13.00;99.90
18906;DHT22;9585;51.018;4.282;2022-08-21T02:17:41;13.00;99.90
18906;DHT22;9585;51.018;4.282;2022-08-21T02:20:12;13.00;99.90
18906;DHT22;9585;51.018;4.282;2022-08-21T02:22:42;13.00;99.90
18906;DHT22;9585;51.018;4.282;2022-08-21T02:25:10;13.00;99.90
18906;DHT22;9585;51.018;4.282;2022-08-21T02:27:40;13.00;99.90
18906;DHT22;9585;51.018;4.282;2022-08-21T02:30:10;13.00;99.90
18906;DHT22;9585;51.018;4.282;2022-08-21T02:32:38;13.00;99.90
18906;DHT22;9585;51.018;4.282;2022-08-21T02:35:07;12.90;99.90
18906;DHT22;9585;51.018;4.282;2022-08-21T02:37:43;12.90;99.90
18906;DHT22;9585;51.018;4.282;2022-08-21T02:40:11;12.90;99.90
18906;DHT22;9585;51.018;4.282;2022-08-21T02:42:40;12.90;99.90
18906;DHT22;9585;51.018;4.282;2022-08-21T02:45:09;12.90;99.90
18906;DHT22;9585;51.018;4.282;2022-08-21T02:47:37;12.90;99.90
18906;DHT22;9585;51.018;4.282;2022-08-21T02:50:06;12.90;99.90
18906;DHT22;9585;51.018;4.282;2022-08-21T02:52:33;12.90;99.90
18906;DHT22;9585;51.018;4.282;2022-08-21T02:55:02;12.90;99.90
18906;DHT22;9585;51.018;4.282;2022-08-21T02:57:30;12.90;99.90
18906;DHT22;9585;51.018;4.282;2022-08-21T02:59:59;12.90;99.90
18906;DHT22;9585;51.018;4.282;2022-08-21T03:02:27;13.00;99.90
18906;DHT22;9585;51.018;4.282;2022-08-21T03:04:54;13.00;99.90
18906;DHT22;9585;51.018;4.282;2022-08-21T03:07:21;13.00;99.90
18906;DHT22;9585;51.018;4.282;2022-08-21T03:09:49;13.00;99.90
18906;DHT22;9585;51.018;4.282;2022-08-21T03:12:16;13.00;99.90
18906;DHT22;9585;51.018;4.282;2022-08-21T03:14:43;13.00;99.90
18906;DHT22;9585;51.018;4.282;2022-08-21T03:17:12;12.90;99.90
18906;DHT22;9585;51.018;4.282;2022-08-21T03:19:40;13.00;99.90
18906;DHT22;9585;51.018;4.282;2022-08-21T03:22:08;12.90;99.90
18906;DHT22;9585;51.018;4.282;2022-08-21T03:24:35;12.90;99.90
18906;DHT22;9585;51.018;4.282;2022-08-21T03:27:03;12.90;99.90
18906;DHT22;9585;51.018;4.282;2022-08-21T03:29:31;12.90;99.90
18906;DHT22;9585;51.018;4.282;2022-08-21T03:31:58;12.90;99.90
18906;DHT22;9585;51.018;4.282;2022-08-21T03:34:27;13.00;99.90
18906;DHT22;9585;51.018;4.282;2022-08-21T03:36:54;13.00;99.90
18906;DHT22;9585;51.018;4.282;2022-08-21T03:39:21;12.90;99.90
18906;DHT22;9585;51.018;4.282;2022-08-21T03:41:49;12.90;99.90
18906;DHT22;9585;51.018;4.282;2022-08-21T03:44:16;12.90;99.90
18906;DHT22;9585;51.018;4.282;2022-08-21T03:46:44;13.00;99.90
18906;DHT22;9585;51.018;4.282;2022-08-21T03:49:11;12.90;99.90
18906;DHT22;9585;51.018;4.282;2022-08-21T03:51:40;12.90;99.90
18906;DHT22;9585;51.018;4.282;2022-08-21T03:54:08;12.90;99.90
18906;DHT22;9585;51.018;4.282;2022-08-21T03:56:36;12.90;99.90
18906;DHT22;9585;51.018;4.282;2022-08-21T03:59:03;12.90;99.90
18906;DHT22;9585;51.018;4.282;2022-08-21T04:01:31;12.90;99.90
18906;DHT22;9585;51.018;4.282;2022-08-21T04:03:59;12.90;99.90
18906;DHT22;9585;51.018;4.282;2022-08-21T04:06:26;12.90;99.90
18906;DHT22;9585;51.018;4.282;2022-08-21T04:08:55;12.90;99.90
18906;DHT22;9585;51.018;4.282;2022-08-21T04:11:22;12.90;99.90
18906;DHT22;9585;51.018;4.282;2022-08-21T04:13:49;12.90;99.90
18906;DHT22;9585;51.018;4.282;2022-08-21T04:16:17;12.90;99.90
18906;DHT22;9585;51.018;4.282;2022-08-21T04:18:45;12.90;99.90
18906;DHT22;9585;51.018;4.282;2022-08-21T04:21:12;12.90;99.90
18906;DHT22;9585;51.018;4.282;2022-08-21T04:23:39;12.90;99.90
18906;DHT22;9585;51.018;4.282;2022-08-21T04:26:08;12.90;99.90
18906;DHT22;9585;51.018;4.282;2022-08-21T04:28:35;12.90;99.90
18906;DHT22;9585;51.018;4.282;2022-08-21T04:31:03;12.80;99.90
18906;DHT22;9585;51.018;4.282;2022-08-21T04:33:30;12.90;99.90
18906;DHT22;9585;51.018;4.282;2022-08-21T04:35:57;12.90;99.90
18906;DHT22;9585;51.018;4.282;2022-08-21T04:38:24;12.80;99.90
18906;DHT22;9585;51.018;4.282;2022-08-21T04:40:52;12.80;99.90
18906;DHT22;9585;51.018;4.282;2022-08-21T04:43:21;12.80;99.90
18906;DHT22;9585;51.018;4.282;2022-08-21T04:45:50;12.90;99.90
18906;DHT22;9585;51.018;4.282;2022-08-21T04:48:21;12.80;99.90
18906;DHT22;9585;51.018;4.282;2022-08-21T04:50:53;12.80;99.90
18906;DHT22;9585;51.018;4.282;2022-08-21T04:53:26;12.80;99.90
18906;DHT22;9585;51.018;4.282;2022-08-21T04:55:54;12.80;99.90
18906;DHT22;9585;51.018;4.282;2022-08-21T04:58:26;12.90;99.90
18906;DHT22;9585;51.018;4.282;2022-08-21T05:00:54;12.90;99.90
18906;DHT22;9585;51.018;4.282;2022-08-21T05:03:23;13.00;99.90
18906;DHT22;9585;51.018;4.282;2022-08-21T05:05:51;13.00;99.90
18906;DHT22;9585;51.018;4.282;2022-08-21T05:08:21;13.10;99.90
18906;DHT22;9585;51.018;4.282;2022-08-21T05:10:51;13.10;99.90
18906;DHT22;9585;51.018;4.282;2022-08-21T05:13:18;13.20;99.90
18906;DHT22;9585;51.018;4.282;2022-08-21T05:15:47;13.30;99.90
18906;DHT22;9585;51.018;4.282;2022-08-21T05:18:14;13.40;99.90
18906;DHT22;9585;51.018;4.282;2022-08-21T05:20:42;13.50;99.90
18906;DHT22;9585;51.018;4.282;2022-08-21T05:23:12;13.80;99.90
18906;DHT22;9585;51.018;4.282;2022-08-21T05:25:41;14.30;99.90
18906;DHT22;9585;51.018;4.282;2022-08-21T05:28:09;14.60;99.90
18906;DHT22;9585;51.018;4.282;2022-08-21T05:30:39;15.30;99.90
18906;DHT22;9585;51.018;4.282;2022-08-21T05:33:08;16.60;99.90
18906;DHT22;9585;51.018;4.282;2022-08-21T05:35:36;17.80;99.90
18906;DHT22;9585;51.018;4.282;2022-08-21T05:38:04;19.10;99.90
18906;DHT22;9585;51.018;4.282;2022-08-21T05:40:32;20.10;99.90
18906;DHT22;9585;51.018;4.282;2022-08-21T05:42:59;21.00;99.90
18906;DHT22;9585;51.018;4.282;2022-08-21T05:45:30;21.20;99.90
18906;DHT22;9585;51.018;4.282;2022-08-21T05:48:15;21.50;99.90
18906;DHT22;9585;51.018;4.282;2022-08-21T05:50:43;22.30;99.90
18906;DHT22;9585;51.018;4.282;2022-08-21T05:53:12;23.10;99.90
18906;DHT22;9585;51.018;4.282;2022-08-21T05:55:40;23.80;99.90
18906;DHT22;9585;51.018;4.282;2022-08-21T05:58:08;24.20;99.90
18906;DHT22;9585;51.018;4.282;2022-08-21T06:00:35;24.80;99.90
18906;DHT22;9585;51.018;4.282;2022-08-21T06:03:03;25.50;99.90
18906;DHT22;9585;51.018;4.282;2022-08-21T06:05:31;26.00;99.90
18906;DHT22;9585;51.018;4.282;2022-08-21T06:07:59;26.00;99.90
18906;DHT22;9585;51.018;4.282;2022-08-21T06:10:26;26.30;99.90
18906;DHT22;9585;51.018;4.282;2022-08-21T06:12:54;26.70;99.90
18906;DHT22;9585;51.018;4.282;2022-08-21T06:15:21;26.90;99.90
18906;DHT22;9585;51.018;4.282;2022-08-21T06:17:48;27.10;99.90
18906;DHT22;9585;51.018;4.282;2022-08-21T06:20:16;27.60;99.90
18906;DHT22;9585;51.018;4.282;2022-08-21T06:22:44;27.90;99.90
18906;DHT22;9585;51.018;4.282;2022-08-21T06:25:11;28.30;99.90
18906;DHT22;9585;51.018;4.282;2022-08-21T06:27:39;28.30;99.90
18906;DHT22;9585;51.018;4.282;2022-08-21T06:30:07;28.50;99.90
18906;DHT22;9585;51.018;4.282;2022-08-21T06:32:35;28.20;99.90
18906;DHT22;9585;51.018;4.282;2022-08-21T06:35:03;28.20;99.90
18906;DHT22;9585;51.018;4.282;2022-08-21T06:37:30;28.10;99.90
18906;DHT22;9585;51.018;4.282;2022-08-21T06:40:00;28.30;99.90
18906;DHT22;9585;51.018;4.282;2022-08-21T06:42:27;28.60;99.90
18906;DHT22;9585;51.018;4.282;2022-08-21T06:44:55;28.90;99.90
18906;DHT22;9585;51.018;4.282;2022-08-21T06:47:23;28.80;99.90
18906;DHT22;9585;51.018;4.282;2022-08-21T06:49:50;28.40;99.90
18906;DHT22;9585;51.018;4.282;2022-08-21T06:52:18;28.60;99.90
18906;DHT22;9585;51.018;4.282;2022-08-21T06:54:45;28.70;99.90
18906;DHT22;9585;51.018;4.282;2022-08-21T06:57:14;29.00;99.90
18906;DHT22;9585;51.018;4.282;2022-08-21T06:59:41;29.30;99.90
18906;DHT22;9585;51.018;4.282;2022-08-21T07:02:08;29.20;99.90
18906;DHT22;9585;51.018;4.282;2022-08-21T07:04:36;29.60;99.90
18906;DHT22;9585;51.018;4.282;2022-08-21T07:07:03;29.80;99.90
18906;DHT22;9585;51.018;4.282;2022-08-21T07:09:30;29.90;99.90
18906;DHT22;9585;51.018;4.282;2022-08-21T07:11:59;30.00;99.90
18906;DHT22;9585;51.018;4.282;2022-08-21T07:14:31;30.20;99.90
18906;DHT22;9585;51.018;4.282;2022-08-21T07:16:58;30.20;99.90
18906;DHT22;9585;51.018;4.282;2022-08-21T07:19:28;30.20;99.90
18906;DHT22;9585;51.018;4.282;2022-08-21T07:21:59;30.10;99.90
18906;DHT22;9585;51.018;4.282;2022-08-21T07:24:28;30.10;99.90
18906;DHT22;9585;51.018;4.282;2022-08-21T07:26:56;30.20;99.90
18906;DHT22;9585;51.018;4.282;2022-08-21T07:29:23;30.30;99.90
18906;DHT22;9585;51.018;4.282;2022-08-21T07:31:52;30.70;99.90
18906;DHT22;9585;51.018;4.282;2022-08-21T07:34:19;31.00;99.90
18906;DHT22;9585;51.018;4.282;2022-08-21T07:36:47;31.20;99.90
18906;DHT22;9585;51.018;4.282;2022-08-21T07:39:14;30.40;99.90
18906;DHT22;9585;51.018;4.282;2022-08-21T07:41:41;30.40;99.90
18906;DHT22;9585;51.018;4.282;2022-08-21T07:44:08;30.70;99.90
18906;DHT22;9585;51.018;4.282;2022-08-21T07:46:36;30.90;99.90
18906;DHT22;9585;51.018;4.282;2022-08-21T07:49:04;31.00;99.90
18906;DHT22;9585;51.018;4.282;2022-08-21T07:51:32;31.10;99.90
18906;DHT22;9585;51.018;4.282;2022-08-21T07:54:00;31.10;99.90
18906;DHT22;9585;51.018;4.282;2022-08-21T07:56:29;30.80;99.90
18906;DHT22;9585;51.018;4.282;2022-08-21T07:58:59;30.70;99.90
18906;DHT22;9585;51.018;4.282;2022-08-21T08:01:28;30.60;99.90
18906;DHT22;9585;51.018;4.282;2022-08-21T08:03:56;30.50;99.90
18906;DHT22;9585;51.018;4.282;2022-08-21T08:06:24;30.50;99.90
18906;DHT22;9585;51.018;4.282;2022-08-21T08:08:52;30.30;99.90
18906;DHT22;9585;51.018;4.282;2022-08-21T08:11:19;30.30;99.90
18906;DHT22;9585;51.018;4.282;2022-08-21T08:13:48;29.80;99.90
18906;DHT22;9585;51.018;4.282;2022-08-21T08:16:17;29.60;99.90
18906;DHT22;9585;51.018;4.282;2022-08-21T08:18:44;29.40;99.90
18906;DHT22;9585;51.018;4.282;2022-08-21T08:21:12;29.20;99.90
18906;DHT22;9585;51.018;4.282;2022-08-21T08:23:41;28.70;99.90
18906;DHT22;9585;51.018;4.282;2022-08-21T08:26:10;28.50;99.90
18906;DHT22;9585;51.018;4.282;2022-08-21T08:28:38;28.20;99.90
18906;DHT22;9585;51.018;4.282;2022-08-21T08:31:05;28.30;99.90
18906;DHT22;9585;51.018;4.282;2022-08-21T08:33:32;28.50;99.90
18906;DHT22;9585;51.018;4.282;2022-08-21T08:36:00;28.60;99.90
18906;DHT22;9585;51.018;4.282;2022-08-21T08:38:27;28.70;99.90
18906;DHT22;9585;51.018;4.282;2022-08-21T08:41:02;28.70;99.90
18906;DHT22;9585;51.018;4.282;2022-08-21T08:43:34;29.10;99.90
18906;DHT22;9585;51.018;4.282;2022-08-21T08:46:05;29.40;99.90
18906;DHT22;9585;51.018;4.282;2022-08-21T08:48:44;29.80;99.90
18906;DHT22;9585;51.018;4.282;2022-08-21T08:51:18;30.10;99.90
18906;DHT22;9585;51.018;4.282;2022-08-21T08:53:52;30.00;99.90
18906;DHT22;9585;51.018;4.282;2022-08-21T08:56:28;30.00;99.90
18906;DHT22;9585;51.018;4.282;2022-08-21T08:59:00;29.90;99.90
18906;DHT22;9585;51.018;4.282;2022-08-21T09:01:29;30.00;99.90
18906;DHT22;9585;51.018;4.282;2022-08-21T09:03:57;29.60;99.90
18906;DHT22;9585;51.018;4.282;2022-08-21T09:06:42;29.60;99.90
18906;DHT22;9585;51.018;4.282;2022-08-21T09:09:22;29.80;99.90
18906;DHT22;9585;51.018;4.282;2022-08-21T09:12:00;29.40;99.90
18906;DHT22;9585;51.018;4.282;2022-08-21T09:14:37;29.30;99.90
18906;DHT22;9585;51.018;4.282;2022-08-21T09:17:17;28.70;99.90
18906;DHT22;9585;51.018;4.282;2022-08-21T09:19:59;28.20;99.90
18906;DHT22;9585;51.018;4.282;2022-08-21T09:22:38;27.30;99.90
18906;DHT22;9585;51.018;4.282;2022-08-21T09:25:15;26.70;99.90
18906;DHT22;9585;51.018;4.282;2022-08-21T09:27:47;26.30;99.90
18906;DHT22;9585;51.018;4.282;2022-08-21T09:30:20;26.10;99.90
18906;DHT22;9585;51.018;4.282;2022-08-21T09:32:50;25.80;99.90
18906;DHT22;9585;51.018;4.282;2022-08-21T09:35:19;26.00;99.90
18906;DHT22;9585;51.018;4.282;2022-08-21T09:37:52;25.60;99.90
18906;DHT22;9585;51.018;4.282;2022-08-21T09:40:33;25.30;99.90
18906;DHT22;9585;51.018;4.282;2022-08-21T09:43:04;24.80;99.90
18906;DHT22;9585;51.018;4.282;2022-08-21T09:45:32;24.30;99.90
18906;DHT22;9585;51.018;4.282;2022-08-21T09:48:11;24.20;99.90
18906;DHT22;9585;51.018;4.282;2022-08-21T09:50:40;24.00;99.90
18906;DHT22;9585;51.018;4.282;2022-08-21T09:53:16;23.70;99.90
18906;DHT22;9585;51.018;4.282;2022-08-21T09:55:49;23.90;99.90
18906;DHT22;9585;51.018;4.282;2022-08-21T09:58:48;24.00;99.90
18906;DHT22;9585;51.018;4.282;2022-08-21T10:01:18;24.10;99.90
18906;DHT22;9585;51.018;4.282;2022-08-21T10:03:46;24.20;99.90
18906;DHT22;9585;51.018;4.282;2022-08-21T10:06:22;24.40;99.90
18906;DHT22;9585;51.018;4.282;2022-08-21T10:08:50;24.70;99.90
18906;DHT22;9585;51.018;4.282;2022-08-21T10:11:32;25.00;99.90
18906;DHT22;9585;51.018;4.282;2022-08-21T10:14:07;24.80;99.90
18906;DHT22;9585;51.018;4.282;2022-08-21T10:16:46;24.80;99.90
18906;DHT22;9585;51.018;4.282;2022-08-21T10:19:23;25.00;99.90
18906;DHT22;9585;51.018;4.282;2022-08-21T10:22:00;25.20;99.90
18906;DHT22;9585;51.018;4.282;2022-08-21T10:24:32;25.60;99.90
18906;DHT22;9585;51.018;4.282;2022-08-21T10:27:10;25.60;99.90
18906;DHT22;9585;51.018;4.282;2022-08-21T10:29:49;25.70;99.90
18906;DHT22;9585;51.018;4.282;2022-08-21T10:35:17;25.40;99.90
18906;DHT22;9585;51.018;4.282;2022-08-21T10:37:54;25.40;99.90
18906;DHT22;9585;51.018;4.282;2022-08-21T10:40:27;25.50;99.90
18906;DHT22;9585;51.018;4.282;2022-08-21T10:43:15;25.50;99.90
18906;DHT22;9585;51.018;4.282;2022-08-21T10:45:57;25.60;99.90
18906;DHT22;9585;51.018;4.282;2022-08-21T10:48:32;25.60;99.90
18906;DHT22;9585;51.018;4.282;2022-08-21T10:51:10;25.10;99.90
18906;DHT22;9585;51.018;4.282;2022-08-21T10:53:55;24.50;99.90
18906;DHT22;9585;51.018;4.282;2022-08-21T10:56:25;24.20;99.90
18906;DHT22;9585;51.018;4.282;2022-08-21T10:59:05;24.10;99.90
18906;DHT22;9585;51.018;4.282;2022-08-21T11:01:44;24.00;99.90
18906;DHT22;9585;51.018;4.282;2022-08-21T11:04:20;24.00;99.90
18906;DHT22;9585;51.018;4.282;2022-08-21T11:06:49;23.90;99.90
18906;DHT22;9585;51.018;4.282;2022-08-21T11:09:21;23.90;99.90
18906;DHT22;9585;51.018;4.282;2022-08-21T11:11:56;23.80;99.90
18906;DHT22;9585;51.018;4.282;2022-08-21T11:14:34;23.70;99.90
18906;DHT22;9585;51.018;4.282;2022-08-21T11:17:11;23.60;99.90
18906;DHT22;9585;51.018;4.282;2022-08-21T11:19:45;23.60;99.90
18906;DHT22;9585;51.018;4.282;2022-08-21T11:22:18;23.70;99.90
18906;DHT22;9585;51.018;4.282;2022-08-21T11:24:54;23.80;99.90
18906;DHT22;9585;51.018;4.282;2022-08-21T11:27:26;23.80;99.90
18906;DHT22;9585;51.018;4.282;2022-08-21T11:29:57;23.80;99.90
18906;DHT22;9585;51.018;4.282;2022-08-21T11:32:37;23.90;99.90
18906;DHT22;9585;51.018;4.282;2022-08-21T11:35:22;23.90;99.90
18906;DHT22;9585;51.018;4.282;2022-08-21T11:38:00;23.90;99.90
18906;DHT22;9585;51.018;4.282;2022-08-21T11:40:40;23.80;99.90
18906;DHT22;9585;51.018;4.282;2022-08-21T11:43:17;24.20;99.90
18906;DHT22;9585;51.018;4.282;2022-08-21T11:45:50;24.70;99.90
18906;DHT22;9585;51.018;4.282;2022-08-21T11:48:32;24.90;99.90
18906;DHT22;9585;51.018;4.282;2022-08-21T11:51:05;25.10;99.90
18906;DHT22;9585;51.018;4.282;2022-08-21T11:53:38;25.20;99.90
18906;DHT22;9585;51.018;4.282;2022-08-21T11:56:16;25.00;99.90
18906;DHT22;9585;51.018;4.282;2022-08-21T11:58:48;25.00;99.90
18906;DHT22;9585;51.018;4.282;2022-08-21T12:01:19;25.50;99.90
18906;DHT22;9585;51.018;4.282;2022-08-21T12:03:55;25.60;99.90
18906;DHT22;9585;51.018;4.282;2022-08-21T12:06:35;25.60;99.90
18906;DHT22;9585;51.018;4.282;2022-08-21T12:09:07;25.50;99.90
18906;DHT22;9585;51.018;4.282;2022-08-21T12:11:46;25.60;99.90
18906;DHT22;9585;51.018;4.282;2022-08-21T12:14:16;25.60;99.90
18906;DHT22;9585;51.018;4.282;2022-08-21T12:16:45;25.40;99.90
18906;DHT22;9585;51.018;4.282;2022-08-21T12:19:29;25.20;99.90
18906;DHT22;9585;51.018;4.282;2022-08-21T12:22:07;25.00;99.90
18906;DHT22;9585;51.018;4.282;2022-08-21T12:24:37;24.90;99.90
18906;DHT22;9585;51.018;4.282;2022-08-21T12:27:20;24.70;99.90
18906;DHT22;9585;51.018;4.282;2022-08-21T12:29:53;24.70;99.90
18906;DHT22;9585;51.018;4.282;2022-08-21T12:32:25;24.80;99.90
18906;DHT22;9585;51.018;4.282;2022-08-21T12:35:00;25.10;99.90
18906;DHT22;9585;51.018;4.282;2022-08-21T12:37:37;25.30;99.90
18906;DHT22;9585;51.018;4.282;2022-08-21T12:40:11;25.30;99.90
18906;DHT22;9585;51.018;4.282;2022-08-21T12:42:45;25.30;99.90
18906;DHT22;9585;51.018;4.282;2022-08-21T12:45:18;25.30;99.90
18906;DHT22;9585;51.018;4.282;2022-08-21T12:47:49;25.30;99.90
18906;DHT22;9585;51.018;4.282;2022-08-21T12:50:21;25.30;99.90
18906;DHT22;9585;51.018;4.282;2022-08-21T12:52:55;25.50;99.90
18906;DHT22;9585;51.018;4.282;2022-08-21T12:55:30;25.60;99.90
18906;DHT22;9585;51.018;4.282;2022-08-21T12:57:58;25.70;99.90
18906;DHT22;9585;51.018;4.282;2022-08-21T13:00:28;25.60;99.90
18906;DHT22;9585;51.018;4.282;2022-08-21T13:02:56;25.30;99.90
18906;DHT22;9585;51.018;4.282;2022-08-21T13:05:30;25.20;99.90
18906;DHT22;9585;51.018;4.282;2022-08-21T13:08:03;25.10;99.90
18906;DHT22;9585;51.018;4.282;2022-08-21T13:10:32;25.00;99.90
18906;DHT22;9585;51.018;4.282;2022-08-21T13:13:04;24.90;99.90
18906;DHT22;9585;51.018;4.282;2022-08-21T13:15:33;24.90;99.90
18906;DHT22;9585;51.018;4.282;2022-08-21T13:18:02;25.10;99.90
18906;DHT22;9585;51.018;4.282;2022-08-21T13:20:34;25.30;99.90
18906;DHT22;9585;51.018;4.282;2022-08-21T13:23:02;25.40;99.90
18906;DHT22;9585;51.018;4.282;2022-08-21T13:25:34;25.40;99.90
18906;DHT22;9585;51.018;4.282;2022-08-21T13:28:07;25.40;99.90
18906;DHT22;9585;51.018;4.282;2022-08-21T13:30:39;25.30;99.90
18906;DHT22;9585;51.018;4.282;2022-08-21T13:33:10;25.40;99.90
18906;DHT22;9585;51.018;4.282;2022-08-21T13:35:48;25.30;99.90
18906;DHT22;9585;51.018;4.282;2022-08-21T13:38:16;25.60;99.90
18906;DHT22;9585;51.018;4.282;2022-08-21T13:40:48;25.90;99.90
18906;DHT22;9585;51.018;4.282;2022-08-21T13:43:17;26.00;99.90
18906;DHT22;9585;51.018;4.282;2022-08-21T13:45:50;25.90;99.90
18906;DHT22;9585;51.018;4.282;2022-08-21T13:48:18;25.60;99.90
18906;DHT22;9585;51.018;4.282;2022-08-21T13:50:48;25.60;99.90
18906;DHT22;9585;51.018;4.282;2022-08-21T13:53:27;25.80;99.90
18906;DHT22;9585;51.018;4.282;2022-08-21T13:55:55;26.00;99.90
18906;DHT22;9585;51.018;4.282;2022-08-21T13:58:27;26.10;99.90
18906;DHT22;9585;51.018;4.282;2022-08-21T14:00:57;26.20;99.90
18906;DHT22;9585;51.018;4.282;2022-08-21T14:03:32;26.40;99.90
18906;DHT22;9585;51.018;4.282;2022-08-21T14:06:02;26.50;99.90
18906;DHT22;9585;51.018;4.282;2022-08-21T14:08:34;26.40;99.90
18906;DHT22;9585;51.018;4.282;2022-08-21T14:11:05;26.30;99.90
18906;DHT22;9585;51.018;4.282;2022-08-21T14:13:39;26.10;99.90
18906;DHT22;9585;51.018;4.282;2022-08-21T14:16:19;25.90;99.90
18906;DHT22;9585;51.018;4.282;2022-08-21T14:18:49;25.80;99.90
18906;DHT22;9585;51.018;4.282;2022-08-21T14:21:29;25.70;99.90
18906;DHT22;9585;51.018;4.282;2022-08-21T14:24:07;25.40;99.90
18906;DHT22;9585;51.018;4.282;2022-08-21T14:26:36;25.20;99.90
18906;DHT22;9585;51.018;4.282;2022-08-21T14:29:07;25.10;99.90
18906;DHT22;9585;51.018;4.282;2022-08-21T14:31:35;25.00;99.90
18906;DHT22;9585;51.018;4.282;2022-08-21T14:34:02;25.00;99.90
18906;DHT22;9585;51.018;4.282;2022-08-21T14:36:31;25.00;99.90
18906;DHT22;9585;51.018;4.282;2022-08-21T14:38:58;25.10;99.90
18906;DHT22;9585;51.018;4.282;2022-08-21T14:41:27;25.10;99.90
18906;DHT22;9585;51.018;4.282;2022-08-21T14:43:56;25.10;99.90
18906;DHT22;9585;51.018;4.282;2022-08-21T14:46:25;25.00;99.90
18906;DHT22;9585;51.018;4.282;2022-08-21T14:48:54;24.80;99.90
18906;DHT22;9585;51.018;4.282;2022-08-21T14:51:21;24.80;99.90
18906;DHT22;9585;51.018;4.282;2022-08-21T14:53:50;24.70;99.90
18906;DHT22;9585;51.018;4.282;2022-08-21T14:56:20;24.80;99.90
18906;DHT22;9585;51.018;4.282;2022-08-21T14:58:49;24.70;99.90
18906;DHT22;9585;51.018;4.282;2022-08-21T15:01:18;24.70;99.90
18906;DHT22;9585;51.018;4.282;2022-08-21T15:03:46;24.70;99.90
18906;DHT22;9585;51.018;4.282;2022-08-21T15:06:15;24.70;99.90
18906;DHT22;9585;51.018;4.282;2022-08-21T15:08:43;24.70;99.90
18906;DHT22;9585;51.018;4.282;2022-08-21T15:11:17;24.80;99.90
18906;DHT22;9585;51.018;4.282;2022-08-21T15:13:45;24.80;99.90
18906;DHT22;9585;51.018;4.282;2022-08-21T15:16:13;24.90;99.90
18906;DHT22;9585;51.018;4.282;2022-08-21T15:18:40;24.90;99.90
18906;DHT22;9585;51.018;4.282;2022-08-21T15:21:08;25.00;99.90
18906;DHT22;9585;51.018;4.282;2022-08-21T15:23:36;24.90;99.90
18906;DHT22;9585;51.018;4.282;2022-08-21T15:26:03;24.80;99.90
18906;DHT22;9585;51.018;4.282;2022-08-21T15:28:34;24.80;99.90
18906;DHT22;9585;51.018;4.282;2022-08-21T15:31:02;24.70;99.90
18906;DHT22;9585;51.018;4.282;2022-08-21T15:33:30;24.70;99.90
18906;DHT22;9585;51.018;4.282;2022-08-21T15:35:57;24.70;99.90
18906;DHT22;9585;51.018;4.282;2022-08-21T15:38:24;24.60;99.90
18906;DHT22;9585;51.018;4.282;2022-08-21T15:40:52;24.60;99.90
18906;DHT22;9585;51.018;4.282;2022-08-21T15:43:23;24.60;99.90
18906;DHT22;9585;51.018;4.282;2022-08-21T15:45:54;24.50;99.90
18906;DHT22;9585;51.018;4.282;2022-08-21T15:48:21;24.50;99.90
18906;DHT22;9585;51.018;4.282;2022-08-21T15:50:49;24.50;99.90
18906;DHT22;9585;51.018;4.282;2022-08-21T15:53:16;24.40;99.90
18906;DHT22;9585;51.018;4.282;2022-08-21T15:55:43;24.40;99.90
18906;DHT22;9585;51.018;4.282;2022-08-21T15:58:13;24.40;99.90
18906;DHT22;9585;51.018;4.282;2022-08-21T16:00:42;24.30;99.90
18906;DHT22;9585;51.018;4.282;2022-08-21T16:03:13;24.30;99.90
18906;DHT22;9585;51.018;4.282;2022-08-21T16:05:42;24.20;99.90
18906;DHT22;9585;51.018;4.282;2022-08-21T16:08:10;24.10;99.90